sensor_id;sensor_type;location;lat;lon;timestamp;P1;durP1;ratioP1;P2;durP2;ratioP2
12896;SDS011;6516;35.028;32.372;2023-04-03T00:00:47;7.88;;;1.88;;
12896;SDS011;6516;35.028;32.372;2023-04-03T00:03:17;13.05;;;1.92;;
12896;SDS011;6516;35.028;32.372;2023-04-03T00:05:45;10.03;;;2.03;;
12896;SDS011;6516;35.028;32.372;2023-04-03T00:08:14;11.50;;;2.13;;
12896;SDS011;6516;35.028;32.372;2023-04-03T00:10:42;7.57;;;1.67;;
12896;SDS011;6516;35.028;32.372;2023-04-03T00:13:10;8.02;;;1.90;;
12896;SDS011;6516;35.028;32.372;2023-04-03T00:15:39;10.80;;;2.10;;
12896;SDS011;6516;35.028;32.372;2023-04-03T00:18:07;10.33;;;3.00;;
12896;SDS011;6516;35.028;32.372;2023-04-03T00:20:37;11.80;;;2.03;;
12896;SDS011;6516;35.028;32.372;2023-04-03T00:23:05;8.63;;;1.88;;
12896;SDS011;6516;35.028;32.372;2023-04-03T00:25:33;10.05;;;2.08;;
12896;SDS011;6516;35.028;32.372;2023-04-03T00:28:03;15.18;;;2.92;;
12896;SDS011;6516;35.028;32.372;2023-04-03T00:30:31;14.03;;;2.53;;
12896;SDS011;6516;35.028;32.372;2023-04-03T00:32:59;12.43;;;1.90;;
12896;SDS011;6516;35.028;32.372;2023-04-03T00:35:28;7.68;;;1.70;;
12896;SDS011;6516;35.028;32.372;2023-04-03T00:37:58;9.85;;;1.80;;
12896;SDS011;6516;35.028;32.372;2023-04-03T00:40:26;7.72;;;1.77;;
12896;SDS011;6516;35.028;32.372;2023-04-03T00:42:55;12.23;;;2.03;;
12896;SDS011;6516;35.028;32.372;2023-04-03T00:45:31;8.32;;;1.90;;
12896;SDS011;6516;35.028;32.372;2023-04-03T00:48:03;8.38;;;1.83;;
12896;SDS011;6516;35.028;32.372;2023-04-03T00:50:35;8.30;;;1.77;;
12896;SDS011;6516;35.028;32.372;2023-04-03T00:53:08;8.27;;;1.95;;
12896;SDS011;6516;35.028;32.372;2023-04-03T00:55:42;8.20;;;2.07;;
12896;SDS011;6516;35.028;32.372;2023-04-03T00:58:11;14.40;;;2.45;;
12896;SDS011;6516;35.028;32.372;2023-04-03T01:00:40;14.18;;;2.10;;
12896;SDS011;6516;35.028;32.372;2023-04-03T01:03:14;9.95;;;2.22;;
12896;SDS011;6516;35.028;32.372;2023-04-03T01:05:42;10.60;;;2.20;;
12896;SDS011;6516;35.028;32.372;2023-04-03T01:08:12;8.10;;;1.80;;
12896;SDS011;6516;35.028;32.372;2023-04-03T01:10:39;10.93;;;1.90;;
12896;SDS011;6516;35.028;32.372;2023-04-03T01:13:17;7.22;;;1.75;;
12896;SDS011;6516;35.028;32.372;2023-04-03T01:15:49;12.52;;;1.65;;
12896;SDS011;6516;35.028;32.372;2023-04-03T01:18:17;8.98;;;1.88;;
12896;SDS011;6516;35.028;32.372;2023-04-03T01:24:07;8.45;;;1.80;;
12896;SDS011;6516;35.028;32.372;2023-04-03T01:26:49;11.43;;;2.00;;
12896;SDS011;6516;35.028;32.372;2023-04-03T01:29:17;10.77;;;1.98;;
12896;SDS011;6516;35.028;32.372;2023-04-03T01:31:48;8.77;;;2.00;;
12896;SDS011;6516;35.028;32.372;2023-04-03T01:34:18;10.07;;;2.30;;
12896;SDS011;6516;35.028;32.372;2023-04-03T01:36:47;9.93;;;1.92;;
12896;SDS011;6516;35.028;32.372;2023-04-03T01:39:15;8.77;;;1.88;;
12896;SDS011;6516;35.028;32.372;2023-04-03T01:41:44;10.77;;;2.20;;
12896;SDS011;6516;35.028;32.372;2023-04-03T01:44:12;9.45;;;1.80;;
12896;SDS011;6516;35.028;32.372;2023-04-03T01:46:40;10.03;;;1.70;;
12896;SDS011;6516;35.028;32.372;2023-04-03T01:49:09;9.13;;;2.25;;
12896;SDS011;6516;35.028;32.372;2023-04-03T01:51:37;9.20;;;2.20;;
12896;SDS011;6516;35.028;32.372;2023-04-03T01:54:05;12.27;;;2.38;;
12896;SDS011;6516;35.028;32.372;2023-04-03T01:56:33;9.82;;;1.83;;
12896;SDS011;6516;35.028;32.372;2023-04-03T01:59:01;10.57;;;1.90;;
12896;SDS011;6516;35.028;32.372;2023-04-03T02:01:28;9.00;;;2.55;;
12896;SDS011;6516;35.028;32.372;2023-04-03T02:03:56;11.93;;;2.17;;
12896;SDS011;6516;35.028;32.372;2023-04-03T02:06:25;9.60;;;2.55;;
12896;SDS011;6516;35.028;32.372;2023-04-03T02:08:53;11.20;;;1.70;;
12896;SDS011;6516;35.028;32.372;2023-04-03T02:11:21;10.80;;;2.63;;
12896;SDS011;6516;35.028;32.372;2023-04-03T02:13:49;13.45;;;2.47;;
12896;SDS011;6516;35.028;32.372;2023-04-03T02:16:16;12.80;;;2.35;;
12896;SDS011;6516;35.028;32.372;2023-04-03T02:18:44;7.63;;;2.00;;
12896;SDS011;6516;35.028;32.372;2023-04-03T02:21:12;8.38;;;1.90;;
12896;SDS011;6516;35.028;32.372;2023-04-03T02:23:41;10.70;;;1.80;;
12896;SDS011;6516;35.028;32.372;2023-04-03T02:26:10;13.07;;;1.90;;
12896;SDS011;6516;35.028;32.372;2023-04-03T02:28:40;10.23;;;1.83;;
12896;SDS011;6516;35.028;32.372;2023-04-03T02:31:08;11.50;;;1.95;;
12896;SDS011;6516;35.028;32.372;2023-04-03T02:33:36;8.75;;;2.00;;
12896;SDS011;6516;35.028;32.372;2023-04-03T02:36:04;12.60;;;2.10;;
12896;SDS011;6516;35.028;32.372;2023-04-03T02:38:33;11.25;;;2.15;;
12896;SDS011;6516;35.028;32.372;2023-04-03T02:41:04;8.35;;;2.33;;
12896;SDS011;6516;35.028;32.372;2023-04-03T02:43:33;11.18;;;2.05;;
12896;SDS011;6516;35.028;32.372;2023-04-03T02:46:01;13.57;;;2.67;;
12896;SDS011;6516;35.028;32.372;2023-04-03T02:48:29;9.80;;;2.00;;
12896;SDS011;6516;35.028;32.372;2023-04-03T02:50:57;8.93;;;2.20;;
12896;SDS011;6516;35.028;32.372;2023-04-03T02:53:26;9.90;;;1.95;;
12896;SDS011;6516;35.028;32.372;2023-04-03T02:55:54;13.38;;;2.45;;
12896;SDS011;6516;35.028;32.372;2023-04-03T02:58:23;7.47;;;1.70;;
12896;SDS011;6516;35.028;32.372;2023-04-03T03:00:51;12.57;;;2.10;;
12896;SDS011;6516;35.028;32.372;2023-04-03T03:03:18;11.40;;;2.00;;
12896;SDS011;6516;35.028;32.372;2023-04-03T03:05:46;10.00;;;2.10;;
12896;SDS011;6516;35.028;32.372;2023-04-03T03:08:14;9.68;;;1.80;;
12896;SDS011;6516;35.028;32.372;2023-04-03T03:10:45;10.40;;;2.00;;
12896;SDS011;6516;35.028;32.372;2023-04-03T03:13:13;8.80;;;1.70;;
12896;SDS011;6516;35.028;32.372;2023-04-03T03:15:42;7.88;;;1.80;;
12896;SDS011;6516;35.028;32.372;2023-04-03T03:18:10;11.60;;;2.05;;
12896;SDS011;6516;35.028;32.372;2023-04-03T03:20:38;6.25;;;1.80;;
12896;SDS011;6516;35.028;32.372;2023-04-03T03:23:06;9.45;;;1.90;;
12896;SDS011;6516;35.028;32.372;2023-04-03T03:25:37;9.37;;;2.33;;
12896;SDS011;6516;35.028;32.372;2023-04-03T03:28:05;7.65;;;2.13;;
12896;SDS011;6516;35.028;32.372;2023-04-03T03:30:33;10.20;;;1.85;;
12896;SDS011;6516;35.028;32.372;2023-04-03T03:33:02;9.60;;;1.90;;
12896;SDS011;6516;35.028;32.372;2023-04-03T03:35:30;12.52;;;2.28;;
12896;SDS011;6516;35.028;32.372;2023-04-03T03:37:58;12.63;;;2.40;;
12896;SDS011;6516;35.028;32.372;2023-04-03T03:40:26;11.10;;;2.00;;
12896;SDS011;6516;35.028;32.372;2023-04-03T03:42:54;9.10;;;2.03;;
12896;SDS011;6516;35.028;32.372;2023-04-03T03:45:21;7.85;;;2.45;;
12896;SDS011;6516;35.028;32.372;2023-04-03T03:47:50;9.05;;;2.28;;
12896;SDS011;6516;35.028;32.372;2023-04-03T03:50:19;14.63;;;2.70;;
12896;SDS011;6516;35.028;32.372;2023-04-03T03:52:47;8.57;;;1.98;;
12896;SDS011;6516;35.028;32.372;2023-04-03T03:55:15;10.57;;;2.05;;
12896;SDS011;6516;35.028;32.372;2023-04-03T03:57:43;14.05;;;3.28;;
12896;SDS011;6516;35.028;32.372;2023-04-03T04:00:11;7.50;;;1.95;;
12896;SDS011;6516;35.028;32.372;2023-04-03T04:02:40;13.00;;;2.07;;
12896;SDS011;6516;35.028;32.372;2023-04-03T04:05:07;11.20;;;2.30;;
12896;SDS011;6516;35.028;32.372;2023-04-03T04:07:37;8.48;;;2.47;;
12896;SDS011;6516;35.028;32.372;2023-04-03T04:10:05;10.57;;;2.55;;
12896;SDS011;6516;35.028;32.372;2023-04-03T04:12:34;13.88;;;2.47;;
12896;SDS011;6516;35.028;32.372;2023-04-03T04:15:02;9.23;;;2.03;;
12896;SDS011;6516;35.028;32.372;2023-04-03T04:17:30;9.23;;;1.92;;
12896;SDS011;6516;35.028;32.372;2023-04-03T04:19:58;8.07;;;1.73;;
12896;SDS011;6516;35.028;32.372;2023-04-03T04:22:26;8.40;;;1.90;;
12896;SDS011;6516;35.028;32.372;2023-04-03T04:24:55;10.25;;;1.88;;
12896;SDS011;6516;35.028;32.372;2023-04-03T04:27:23;7.27;;;1.90;;
12896;SDS011;6516;35.028;32.372;2023-04-03T04:29:51;9.70;;;2.65;;
12896;SDS011;6516;35.028;32.372;2023-04-03T04:32:19;9.35;;;2.13;;
12896;SDS011;6516;35.028;32.372;2023-04-03T04:34:46;10.25;;;2.00;;
12896;SDS011;6516;35.028;32.372;2023-04-03T04:37:14;8.18;;;1.90;;
12896;SDS011;6516;35.028;32.372;2023-04-03T04:39:42;6.90;;;1.90;;
12896;SDS011;6516;35.028;32.372;2023-04-03T04:42:11;9.70;;;1.88;;
12896;SDS011;6516;35.028;32.372;2023-04-03T04:44:39;10.38;;;1.88;;
12896;SDS011;6516;35.028;32.372;2023-04-03T04:47:07;7.57;;;1.60;;
12896;SDS011;6516;35.028;32.372;2023-04-03T04:49:35;11.57;;;1.95;;
12896;SDS011;6516;35.028;32.372;2023-04-03T04:52:03;7.93;;;1.90;;
12896;SDS011;6516;35.028;32.372;2023-04-03T04:54:31;7.38;;;1.95;;
12896;SDS011;6516;35.028;32.372;2023-04-03T04:56:59;9.35;;;2.08;;
12896;SDS011;6516;35.028;32.372;2023-04-03T04:59:28;13.32;;;3.60;;
12896;SDS011;6516;35.028;32.372;2023-04-03T05:01:56;7.07;;;2.63;;
12896;SDS011;6516;35.028;32.372;2023-04-03T05:04:24;9.23;;;2.60;;
12896;SDS011;6516;35.028;32.372;2023-04-03T05:06:51;7.38;;;2.28;;
12896;SDS011;6516;35.028;32.372;2023-04-03T05:09:19;12.23;;;2.65;;
12896;SDS011;6516;35.028;32.372;2023-04-03T05:11:47;7.15;;;2.65;;
12896;SDS011;6516;35.028;32.372;2023-04-03T05:14:15;8.68;;;2.65;;
12896;SDS011;6516;35.028;32.372;2023-04-03T05:16:44;11.27;;;3.00;;
12896;SDS011;6516;35.028;32.372;2023-04-03T05:19:12;6.75;;;2.75;;
12896;SDS011;6516;35.028;32.372;2023-04-03T05:21:40;10.10;;;2.65;;
12896;SDS011;6516;35.028;32.372;2023-04-03T05:24:08;8.93;;;2.80;;
12896;SDS011;6516;35.028;32.372;2023-04-03T05:26:36;8.52;;;2.50;;
12896;SDS011;6516;35.028;32.372;2023-04-03T05:29:04;7.37;;;2.40;;
12896;SDS011;6516;35.028;32.372;2023-04-03T05:31:32;7.78;;;2.50;;
12896;SDS011;6516;35.028;32.372;2023-04-03T05:34:01;13.85;;;3.03;;
12896;SDS011;6516;35.028;32.372;2023-04-03T05:36:29;12.10;;;2.40;;
12896;SDS011;6516;35.028;32.372;2023-04-03T05:38:57;9.85;;;2.30;;
12896;SDS011;6516;35.028;32.372;2023-04-03T05:41:25;10.13;;;2.30;;
12896;SDS011;6516;35.028;32.372;2023-04-03T05:43:53;9.43;;;2.30;;
12896;SDS011;6516;35.028;32.372;2023-04-03T05:46:21;7.88;;;1.95;;
12896;SDS011;6516;35.028;32.372;2023-04-03T05:48:49;6.68;;;2.00;;
12896;SDS011;6516;35.028;32.372;2023-04-03T05:51:19;10.75;;;2.10;;
12896;SDS011;6516;35.028;32.372;2023-04-03T05:53:52;13.67;;;2.67;;
12896;SDS011;6516;35.028;32.372;2023-04-03T05:56:26;8.25;;;2.13;;
12896;SDS011;6516;35.028;32.372;2023-04-03T05:58:54;13.48;;;2.40;;
12896;SDS011;6516;35.028;32.372;2023-04-03T06:01:22;5.75;;;1.90;;
12896;SDS011;6516;35.028;32.372;2023-04-03T06:03:49;9.88;;;2.10;;
12896;SDS011;6516;35.028;32.372;2023-04-03T06:06:19;9.33;;;2.27;;
12896;SDS011;6516;35.028;32.372;2023-04-03T06:08:47;10.88;;;2.22;;
12896;SDS011;6516;35.028;32.372;2023-04-03T06:11:15;8.50;;;2.40;;
12896;SDS011;6516;35.028;32.372;2023-04-03T06:13:43;9.48;;;2.30;;
12896;SDS011;6516;35.028;32.372;2023-04-03T06:16:12;9.43;;;2.35;;
12896;SDS011;6516;35.028;32.372;2023-04-03T06:18:41;10.30;;;2.30;;
12896;SDS011;6516;35.028;32.372;2023-04-03T06:21:08;12.40;;;2.47;;
12896;SDS011;6516;35.028;32.372;2023-04-03T06:23:38;9.88;;;2.35;;
12896;SDS011;6516;35.028;32.372;2023-04-03T06:26:05;9.50;;;2.15;;
12896;SDS011;6516;35.028;32.372;2023-04-03T06:28:33;11.18;;;2.65;;
12896;SDS011;6516;35.028;32.372;2023-04-03T06:31:01;11.33;;;2.53;;
12896;SDS011;6516;35.028;32.372;2023-04-03T06:33:31;10.88;;;2.20;;
12896;SDS011;6516;35.028;32.372;2023-04-03T06:35:59;9.38;;;2.50;;
12896;SDS011;6516;35.028;32.372;2023-04-03T06:38:31;12.52;;;2.30;;
12896;SDS011;6516;35.028;32.372;2023-04-03T06:41:01;7.13;;;2.42;;
12896;SDS011;6516;35.028;32.372;2023-04-03T06:43:29;8.20;;;2.23;;
12896;SDS011;6516;35.028;32.372;2023-04-03T06:45:57;8.55;;;2.30;;
12896;SDS011;6516;35.028;32.372;2023-04-03T06:48:25;9.95;;;2.72;;
12896;SDS011;6516;35.028;32.372;2023-04-03T06:50:53;9.45;;;2.10;;
12896;SDS011;6516;35.028;32.372;2023-04-03T06:53:21;16.30;;;2.72;;
12896;SDS011;6516;35.028;32.372;2023-04-03T06:55:49;8.63;;;2.20;;
12896;SDS011;6516;35.028;32.372;2023-04-03T06:58:18;9.82;;;2.20;;
12896;SDS011;6516;35.028;32.372;2023-04-03T07:00:47;9.32;;;2.33;;
12896;SDS011;6516;35.028;32.372;2023-04-03T07:03:15;13.18;;;2.38;;
12896;SDS011;6516;35.028;32.372;2023-04-03T07:05:43;11.68;;;2.22;;
12896;SDS011;6516;35.028;32.372;2023-04-03T07:08:11;6.37;;;2.07;;
12896;SDS011;6516;35.028;32.372;2023-04-03T07:10:38;9.73;;;2.40;;
12896;SDS011;6516;35.028;32.372;2023-04-03T07:13:06;12.32;;;2.20;;
12896;SDS011;6516;35.028;32.372;2023-04-03T07:15:35;9.82;;;2.67;;
12896;SDS011;6516;35.028;32.372;2023-04-03T07:18:03;12.82;;;2.53;;
12896;SDS011;6516;35.028;32.372;2023-04-03T07:20:31;13.87;;;2.27;;
12896;SDS011;6516;35.028;32.372;2023-04-03T07:22:59;12.75;;;2.38;;
12896;SDS011;6516;35.028;32.372;2023-04-03T07:25:27;8.65;;;2.03;;
12896;SDS011;6516;35.028;32.372;2023-04-03T07:27:55;10.65;;;2.00;;
12896;SDS011;6516;35.028;32.372;2023-04-03T07:30:23;12.50;;;2.72;;
12896;SDS011;6516;35.028;32.372;2023-04-03T07:32:52;9.43;;;2.13;;
12896;SDS011;6516;35.028;32.372;2023-04-03T07:35:20;9.93;;;2.40;;
12896;SDS011;6516;35.028;32.372;2023-04-03T07:37:48;11.45;;;2.35;;
12896;SDS011;6516;35.028;32.372;2023-04-03T07:40:16;13.50;;;2.65;;
12896;SDS011;6516;35.028;32.372;2023-04-03T07:42:43;10.15;;;2.30;;
12896;SDS011;6516;35.028;32.372;2023-04-03T07:45:11;11.03;;;2.33;;
12896;SDS011;6516;35.028;32.372;2023-04-03T07:47:40;10.30;;;2.20;;
12896;SDS011;6516;35.028;32.372;2023-04-03T07:50:09;11.07;;;2.33;;
12896;SDS011;6516;35.028;32.372;2023-04-03T07:52:37;11.52;;;2.17;;
12896;SDS011;6516;35.028;32.372;2023-04-03T07:55:05;11.60;;;2.25;;
12896;SDS011;6516;35.028;32.372;2023-04-03T07:57:34;9.80;;;2.47;;
12896;SDS011;6516;35.028;32.372;2023-04-03T08:00:02;11.52;;;2.53;;
12896;SDS011;6516;35.028;32.372;2023-04-03T08:02:31;15.68;;;3.08;;
12896;SDS011;6516;35.028;32.372;2023-04-03T08:04:59;11.77;;;2.67;;
12896;SDS011;6516;35.028;32.372;2023-04-03T08:07:29;12.18;;;2.42;;
12896;SDS011;6516;35.028;32.372;2023-04-03T08:09:56;11.97;;;2.33;;
12896;SDS011;6516;35.028;32.372;2023-04-03T08:12:24;11.48;;;2.60;;
12896;SDS011;6516;35.028;32.372;2023-04-03T08:14:53;11.98;;;2.30;;
12896;SDS011;6516;35.028;32.372;2023-04-03T08:17:21;8.95;;;2.40;;
12896;SDS011;6516;35.028;32.372;2023-04-03T08:19:49;9.80;;;2.55;;
12896;SDS011;6516;35.028;32.372;2023-04-03T08:22:17;9.53;;;2.67;;
12896;SDS011;6516;35.028;32.372;2023-04-03T08:24:46;13.35;;;2.60;;
12896;SDS011;6516;35.028;32.372;2023-04-03T08:27:14;12.20;;;2.55;;
12896;SDS011;6516;35.028;32.372;2023-04-03T08:29:42;9.43;;;2.55;;
12896;SDS011;6516;35.028;32.372;2023-04-03T08:32:10;8.52;;;2.30;;
12896;SDS011;6516;35.028;32.372;2023-04-03T08:34:38;9.00;;;2.20;;
12896;SDS011;6516;35.028;32.372;2023-04-03T08:37:06;9.43;;;2.78;;
12896;SDS011;6516;35.028;32.372;2023-04-03T08:39:34;10.43;;;2.58;;
12896;SDS011;6516;35.028;32.372;2023-04-03T08:42:05;10.63;;;2.40;;
12896;SDS011;6516;35.028;32.372;2023-04-03T08:44:45;9.27;;;2.75;;
12896;SDS011;6516;35.028;32.372;2023-04-03T08:47:18;11.37;;;2.30;;
12896;SDS011;6516;35.028;32.372;2023-04-03T08:49:52;9.80;;;2.20;;
12896;SDS011;6516;35.028;32.372;2023-04-03T08:52:24;10.50;;;2.58;;
12896;SDS011;6516;35.028;32.372;2023-04-03T08:55:01;10.43;;;2.47;;
12896;SDS011;6516;35.028;32.372;2023-04-03T08:57:34;11.77;;;2.72;;
12896;SDS011;6516;35.028;32.372;2023-04-03T09:00:13;11.17;;;2.60;;
12896;SDS011;6516;35.028;32.372;2023-04-03T09:02:47;9.02;;;2.33;;
12896;SDS011;6516;35.028;32.372;2023-04-03T09:05:17;8.65;;;2.35;;
12896;SDS011;6516;35.028;32.372;2023-04-03T09:07:49;13.20;;;2.60;;
12896;SDS011;6516;35.028;32.372;2023-04-03T09:10:27;11.82;;;2.30;;
12896;SDS011;6516;35.028;32.372;2023-04-03T09:13:03;8.27;;;2.57;;
12896;SDS011;6516;35.028;32.372;2023-04-03T09:15:37;11.45;;;2.70;;
12896;SDS011;6516;35.028;32.372;2023-04-03T09:18:05;8.80;;;2.60;;
12896;SDS011;6516;35.028;32.372;2023-04-03T09:20:44;10.25;;;3.03;;
12896;SDS011;6516;35.028;32.372;2023-04-03T09:23:26;9.20;;;2.55;;
12896;SDS011;6516;35.028;32.372;2023-04-03T09:26:01;13.60;;;2.80;;
12896;SDS011;6516;35.028;32.372;2023-04-03T09:28:35;8.95;;;2.50;;
12896;SDS011;6516;35.028;32.372;2023-04-03T09:31:11;12.15;;;3.00;;
12896;SDS011;6516;35.028;32.372;2023-04-03T09:33:47;8.77;;;2.90;;
12896;SDS011;6516;35.028;32.372;2023-04-03T09:36:38;13.10;;;3.15;;
12896;SDS011;6516;35.028;32.372;2023-04-03T09:39:13;9.57;;;2.97;;
12896;SDS011;6516;35.028;32.372;2023-04-03T09:41:54;10.35;;;3.30;;
12896;SDS011;6516;35.028;32.372;2023-04-03T09:44:27;12.95;;;3.38;;
12896;SDS011;6516;35.028;32.372;2023-04-03T09:46:56;14.02;;;3.72;;
12896;SDS011;6516;35.028;32.372;2023-04-03T09:49:25;9.07;;;3.35;;
12896;SDS011;6516;35.028;32.372;2023-04-03T09:51:53;12.47;;;4.30;;
12896;SDS011;6516;35.028;32.372;2023-04-03T09:54:25;10.45;;;4.82;;
12896;SDS011;6516;35.028;32.372;2023-04-03T09:57:01;12.30;;;4.78;;
12896;SDS011;6516;35.028;32.372;2023-04-03T09:59:40;16.55;;;6.05;;
12896;SDS011;6516;35.028;32.372;2023-04-03T10:02:30;13.20;;;4.10;;
12896;SDS011;6516;35.028;32.372;2023-04-03T10:05:02;15.77;;;5.57;;
12896;SDS011;6516;35.028;32.372;2023-04-03T10:07:32;10.80;;;4.60;;
12896;SDS011;6516;35.028;32.372;2023-04-03T10:10:03;12.50;;;4.40;;
12896;SDS011;6516;35.028;32.372;2023-04-03T10:12:47;14.02;;;4.90;;
12896;SDS011;6516;35.028;32.372;2023-04-03T10:15:21;12.63;;;4.70;;
12896;SDS011;6516;35.028;32.372;2023-04-03T10:18:00;9.83;;;3.67;;
12896;SDS011;6516;35.028;32.372;2023-04-03T10:20:35;12.77;;;4.50;;
12896;SDS011;6516;35.028;32.372;2023-04-03T10:23:15;9.35;;;3.55;;
12896;SDS011;6516;35.028;32.372;2023-04-03T10:25:48;9.63;;;3.40;;
12896;SDS011;6516;35.028;32.372;2023-04-03T10:28:30;11.07;;;3.15;;
12896;SDS011;6516;35.028;32.372;2023-04-03T10:31:10;13.50;;;3.50;;
12896;SDS011;6516;35.028;32.372;2023-04-03T10:33:49;12.63;;;3.20;;
12896;SDS011;6516;35.028;32.372;2023-04-03T10:36:29;10.45;;;2.78;;
12896;SDS011;6516;35.028;32.372;2023-04-03T10:39:10;10.35;;;2.60;;
12896;SDS011;6516;35.028;32.372;2023-04-03T10:41:55;10.60;;;2.88;;
12896;SDS011;6516;35.028;32.372;2023-04-03T10:44:32;10.03;;;2.67;;
12896;SDS011;6516;35.028;32.372;2023-04-03T10:47:12;10.40;;;3.15;;
12896;SDS011;6516;35.028;32.372;2023-04-03T10:49:49;11.43;;;2.55;;
12896;SDS011;6516;35.028;32.372;2023-04-03T10:52:26;10.05;;;2.58;;
12896;SDS011;6516;35.028;32.372;2023-04-03T10:55:09;8.93;;;2.30;;
12896;SDS011;6516;35.028;32.372;2023-04-03T10:57:51;12.70;;;3.13;;
12896;SDS011;6516;35.028;32.372;2023-04-03T11:00:22;10.93;;;2.72;;
12896;SDS011;6516;35.028;32.372;2023-04-03T11:03:03;11.50;;;3.08;;
12896;SDS011;6516;35.028;32.372;2023-04-03T11:05:36;12.73;;;2.92;;
12896;SDS011;6516;35.028;32.372;2023-04-03T11:08:10;10.20;;;2.38;;
12896;SDS011;6516;35.028;32.372;2023-04-03T11:10:51;10.17;;;2.33;;
12896;SDS011;6516;35.028;32.372;2023-04-03T11:13:24;12.27;;;2.53;;
12896;SDS011;6516;35.028;32.372;2023-04-03T11:16:04;12.32;;;3.05;;
12896;SDS011;6516;35.028;32.372;2023-04-03T11:18:35;10.68;;;2.65;;
12896;SDS011;6516;35.028;32.372;2023-04-03T11:21:09;11.13;;;2.75;;
12896;SDS011;6516;35.028;32.372;2023-04-03T11:23:43;14.37;;;2.93;;
12896;SDS011;6516;35.028;32.372;2023-04-03T11:26:12;11.27;;;2.85;;
12896;SDS011;6516;35.028;32.372;2023-04-03T11:28:43;12.15;;;2.67;;
12896;SDS011;6516;35.028;32.372;2023-04-03T11:31:15;10.05;;;2.78;;
12896;SDS011;6516;35.028;32.372;2023-04-03T11:34:02;12.35;;;2.60;;
12896;SDS011;6516;35.028;32.372;2023-04-03T11:36:44;11.07;;;2.40;;
12896;SDS011;6516;35.028;32.372;2023-04-03T11:39:17;9.95;;;2.30;;
12896;SDS011;6516;35.028;32.372;2023-04-03T11:41:51;11.80;;;2.70;;
12896;SDS011;6516;35.028;32.372;2023-04-03T11:47:06;11.02;;;2.30;;
12896;SDS011;6516;35.028;32.372;2023-04-03T11:49:54;9.33;;;2.53;;
12896;SDS011;6516;35.028;32.372;2023-04-03T11:58:13;12.98;;;2.80;;
12896;SDS011;6516;35.028;32.372;2023-04-03T12:01:01;8.98;;;2.53;;
12896;SDS011;6516;35.028;32.372;2023-04-03T12:12:41;11.00;;;2.40;;
12896;SDS011;6516;35.028;32.372;2023-04-03T12:15:19;10.23;;;2.65;;
12896;SDS011;6516;35.028;32.372;2023-04-03T12:17:52;13.23;;;2.80;;
12896;SDS011;6516;35.028;32.372;2023-04-03T12:23:26;10.68;;;2.38;;
12896;SDS011;6516;35.028;32.372;2023-04-03T12:26:01;10.05;;;2.65;;
12896;SDS011;6516;35.028;32.372;2023-04-03T12:28:47;10.30;;;2.50;;
12896;SDS011;6516;35.028;32.372;2023-04-03T12:31:18;9.93;;;2.90;;
12896;SDS011;6516;35.028;32.372;2023-04-03T12:33:56;11.23;;;2.72;;
12896;SDS011;6516;35.028;32.372;2023-04-03T12:36:46;10.95;;;2.20;;
12896;SDS011;6516;35.028;32.372;2023-04-03T12:39:39;12.48;;;2.35;;
12896;SDS011;6516;35.028;32.372;2023-04-03T12:45:39;13.30;;;3.00;;
12896;SDS011;6516;35.028;32.372;2023-04-03T12:48:14;16.80;;;2.33;;
12896;SDS011;6516;35.028;32.372;2023-04-03T12:50:45;12.32;;;2.90;;
12896;SDS011;6516;35.028;32.372;2023-04-03T12:53:15;15.25;;;2.85;;
12896;SDS011;6516;35.028;32.372;2023-04-03T12:55:49;6.38;;;2.28;;
12896;SDS011;6516;35.028;32.372;2023-04-03T12:58:22;10.67;;;2.70;;
12896;SDS011;6516;35.028;32.372;2023-04-03T13:00:58;10.63;;;2.42;;
12896;SDS011;6516;35.028;32.372;2023-04-03T13:03:29;11.57;;;2.92;;
12896;SDS011;6516;35.028;32.372;2023-04-03T13:05:58;12.10;;;2.92;;
12896;SDS011;6516;35.028;32.372;2023-04-03T13:08:28;11.25;;;2.70;;
12896;SDS011;6516;35.028;32.372;2023-04-03T13:11:00;11.27;;;2.30;;
12896;SDS011;6516;35.028;32.372;2023-04-03T13:13:32;10.45;;;2.80;;
12896;SDS011;6516;35.028;32.372;2023-04-03T13:16:06;13.60;;;2.95;;
12896;SDS011;6516;35.028;32.372;2023-04-03T13:18:36;11.40;;;2.38;;
12896;SDS011;6516;35.028;32.372;2023-04-03T13:21:05;12.70;;;2.92;;
12896;SDS011;6516;35.028;32.372;2023-04-03T13:23:42;10.70;;;2.70;;
12896;SDS011;6516;35.028;32.372;2023-04-03T13:26:16;11.20;;;2.75;;
12896;SDS011;6516;35.028;32.372;2023-04-03T13:28:45;13.60;;;2.75;;
12896;SDS011;6516;35.028;32.372;2023-04-03T13:31:18;12.80;;;2.55;;
12896;SDS011;6516;35.028;32.372;2023-04-03T13:33:55;9.90;;;2.25;;
12896;SDS011;6516;35.028;32.372;2023-04-03T13:36:29;13.60;;;2.63;;
12896;SDS011;6516;35.028;32.372;2023-04-03T13:39:00;15.70;;;2.60;;
12896;SDS011;6516;35.028;32.372;2023-04-03T13:41:35;14.10;;;2.63;;
12896;SDS011;6516;35.028;32.372;2023-04-03T13:44:16;9.27;;;2.88;;
12896;SDS011;6516;35.028;32.372;2023-04-03T13:47:14;11.98;;;2.63;;
12896;SDS011;6516;35.028;32.372;2023-04-03T13:49:46;14.10;;;3.03;;
12896;SDS011;6516;35.028;32.372;2023-04-03T13:52:34;10.63;;;2.63;;
12896;SDS011;6516;35.028;32.372;2023-04-03T13:55:16;9.80;;;3.03;;
12896;SDS011;6516;35.028;32.372;2023-04-03T13:57:51;10.30;;;2.90;;
12896;SDS011;6516;35.028;32.372;2023-04-03T14:00:26;11.07;;;2.97;;
12896;SDS011;6516;35.028;32.372;2023-04-03T14:03:00;10.57;;;2.80;;
12896;SDS011;6516;35.028;32.372;2023-04-03T14:05:28;12.63;;;2.90;;
12896;SDS011;6516;35.028;32.372;2023-04-03T14:07:56;9.80;;;3.22;;
12896;SDS011;6516;35.028;32.372;2023-04-03T14:10:24;8.55;;;2.50;;
12896;SDS011;6516;35.028;32.372;2023-04-03T14:12:53;10.35;;;2.42;;
12896;SDS011;6516;35.028;32.372;2023-04-03T14:15:23;13.77;;;3.00;;
12896;SDS011;6516;35.028;32.372;2023-04-03T14:17:54;8.32;;;2.92;;
12896;SDS011;6516;35.028;32.372;2023-04-03T14:20:23;8.60;;;2.78;;
12896;SDS011;6516;35.028;32.372;2023-04-03T14:22:53;8.98;;;2.75;;
12896;SDS011;6516;35.028;32.372;2023-04-03T14:25:22;10.07;;;2.65;;
12896;SDS011;6516;35.028;32.372;2023-04-03T14:27:51;15.57;;;3.53;;
12896;SDS011;6516;35.028;32.372;2023-04-03T14:30:22;14.75;;;2.80;;
12896;SDS011;6516;35.028;32.372;2023-04-03T14:32:52;13.80;;;2.80;;
12896;SDS011;6516;35.028;32.372;2023-04-03T14:35:19;13.93;;;2.95;;
12896;SDS011;6516;35.028;32.372;2023-04-03T14:37:48;12.50;;;3.05;;
12896;SDS011;6516;35.028;32.372;2023-04-03T14:40:18;14.80;;;2.80;;
12896;SDS011;6516;35.028;32.372;2023-04-03T14:42:49;12.55;;;3.10;;
12896;SDS011;6516;35.028;32.372;2023-04-03T14:45:22;10.65;;;2.95;;
12896;SDS011;6516;35.028;32.372;2023-04-03T14:47:52;10.10;;;2.53;;
12896;SDS011;6516;35.028;32.372;2023-04-03T14:50:22;10.07;;;3.00;;
12896;SDS011;6516;35.028;32.372;2023-04-03T14:52:54;9.67;;;3.00;;
12896;SDS011;6516;35.028;32.372;2023-04-03T14:55:25;11.80;;;2.80;;
12896;SDS011;6516;35.028;32.372;2023-04-03T14:57:54;11.82;;;3.28;;
12896;SDS011;6516;35.028;32.372;2023-04-03T15:00:23;9.90;;;2.80;;
12896;SDS011;6516;35.028;32.372;2023-04-03T15:02:51;10.60;;;2.72;;
12896;SDS011;6516;35.028;32.372;2023-04-03T15:05:19;13.83;;;3.20;;
12896;SDS011;6516;35.028;32.372;2023-04-03T15:07:48;13.18;;;2.90;;
12896;SDS011;6516;35.028;32.372;2023-04-03T15:10:20;13.95;;;3.30;;
12896;SDS011;6516;35.028;32.372;2023-04-03T15:12:54;13.13;;;2.90;;
12896;SDS011;6516;35.028;32.372;2023-04-03T15:15:24;11.40;;;3.08;;
12896;SDS011;6516;35.028;32.372;2023-04-03T15:17:56;9.73;;;3.30;;
12896;SDS011;6516;35.028;32.372;2023-04-03T15:20:25;13.85;;;3.13;;
12896;SDS011;6516;35.028;32.372;2023-04-03T15:22:55;14.57;;;3.38;;
12896;SDS011;6516;35.028;32.372;2023-04-03T15:25:25;12.30;;;3.10;;
12896;SDS011;6516;35.028;32.372;2023-04-03T15:27:54;10.10;;;3.22;;
12896;SDS011;6516;35.028;32.372;2023-04-03T15:30:24;9.27;;;3.10;;